createdAt,value
2018-06-11T00:00:43.341Z,20.40
2018-06-11T00:01:43.269Z,20.37
2018-06-11T00:02:43.201Z,20.34
2018-06-11T00:03:43.132Z,20.30
2018-06-11T00:04:43.061Z,20.42
2018-06-11T00:05:42.991Z,20.43
2018-06-11T00:06:42.924Z,20.46
2018-06-11T00:07:42.852Z,20.49
2018-06-11T00:08:42.781Z,20.50
2018-06-11T00:09:42.710Z,20.47
2018-06-11T00:10:42.642Z,20.51
2018-06-11T00:11:42.577Z,20.56
2018-06-11T00:12:42.501Z,20.46
2018-06-11T00:13:42.433Z,20.50
2018-06-11T00:14:42.361Z,20.46
2018-06-11T00:15:42.295Z,20.43
2018-06-11T00:16:42.224Z,20.43
2018-06-11T00:17:42.151Z,20.40
2018-06-11T00:18:42.082Z,20.40
2018-06-11T00:19:42.012Z,20.35
2018-06-11T00:20:41.943Z,20.28
2018-06-11T00:21:41.872Z,20.28
2018-06-11T00:22:41.819Z,20.30
2018-06-11T00:23:41.883Z,20.28
2018-06-11T00:24:41.662Z,20.26
2018-06-11T00:25:41.592Z,20.31
2018-06-11T00:26:41.523Z,20.27
2018-06-11T00:27:41.454Z,20.18
2018-06-11T00:28:41.383Z,20.18
2018-06-11T00:29:41.317Z,20.18
2018-06-11T00:30:41.242Z,20.18
2018-06-11T00:31:41.173Z,20.20
2018-06-11T00:32:41.101Z,20.20
2018-06-11T00:33:41.032Z,20.27
2018-06-11T00:34:40.962Z,20.23
2018-06-11T00:35:40.893Z,20.18
2018-06-11T00:36:40.822Z,20.13
2018-06-11T00:37:40.751Z,20.16
2018-06-11T00:38:40.681Z,20.09
2018-06-11T00:39:40.614Z,20.06
2018-06-11T00:40:40.542Z,20.09
2018-06-11T00:41:40.472Z,20.00
2018-06-11T00:42:40.402Z,19.93
2018-06-11T00:43:40.331Z,19.93
2018-06-11T00:44:40.262Z,19.90
2018-06-11T00:45:40.191Z,19.83
2018-06-11T00:46:40.121Z,19.76
2018-06-11T00:47:40.052Z,19.78
2018-06-11T00:48:39.983Z,19.72
2018-06-11T00:49:39.912Z,19.71
2018-06-11T00:50:39.841Z,19.71
2018-06-11T00:51:39.771Z,19.63
2018-06-11T00:52:39.701Z,19.57
2018-06-11T00:53:39.630Z,19.54
2018-06-11T00:54:39.560Z,19.63
2018-06-11T00:55:39.490Z,19.58
2018-06-11T00:56:39.419Z,19.48
2018-06-11T00:57:39.348Z,19.48
2018-06-11T00:58:39.281Z,19.39
2018-06-11T00:59:39.209Z,19.38
2018-06-11T01:00:39.138Z,19.42
2018-06-11T01:01:39.067Z,19.39
2018-06-11T01:02:38.997Z,19.35
2018-06-11T01:03:38.927Z,19.27
2018-06-11T01:04:38.857Z,19.36
2018-06-11T01:05:38.785Z,19.27
2018-06-11T01:06:38.715Z,19.23
2018-06-11T01:07:38.646Z,19.27
2018-06-11T01:08:38.575Z,19.13
2018-06-11T01:09:38.502Z,19.23
2018-06-11T01:10:38.432Z,19.15
2018-06-11T01:11:38.363Z,19.13
2018-06-11T01:12:38.292Z,19.09
2018-06-11T01:13:38.221Z,19.13
2018-06-11T01:14:38.151Z,18.95
2018-06-11T01:15:38.080Z,19.11
2018-06-11T01:16:38.010Z,19.06
2018-06-11T01:17:37.939Z,18.92
2018-06-11T01:18:37.869Z,18.89
2018-06-11T01:19:37.799Z,18.92
2018-06-11T01:20:37.728Z,18.90
2018-06-11T01:21:37.658Z,18.92
2018-06-11T01:22:37.589Z,18.92
2018-06-11T01:23:37.516Z,18.95
2018-06-11T01:24:37.450Z,18.87
2018-06-11T01:25:37.408Z,18.97
2018-06-11T01:26:37.303Z,18.95
2018-06-11T01:27:37.232Z,18.95
2018-06-11T01:28:37.162Z,18.87
2018-06-11T01:29:37.090Z,18.87
2018-06-11T01:30:37.020Z,18.82
2018-06-11T01:31:36.949Z,18.74
2018-06-11T01:32:36.879Z,18.69
2018-06-11T01:33:36.808Z,18.69
2018-06-11T01:34:36.736Z,18.57
2018-06-11T01:35:36.666Z,18.53
2018-06-11T01:36:36.603Z,18.53
2018-06-11T01:37:36.525Z,18.43
2018-06-11T01:38:36.453Z,18.50
2018-06-11T01:39:36.531Z,18.39
2018-06-11T01:40:36.312Z,18.47
2018-06-11T01:41:36.239Z,18.37
2018-06-11T01:42:36.169Z,18.32
2018-06-11T01:43:36.098Z,18.28
2018-06-11T01:44:36.027Z,18.21
2018-06-11T01:45:35.958Z,18.32
2018-06-11T01:46:35.885Z,18.32
2018-06-11T01:47:35.814Z,18.31
2018-06-11T01:48:35.743Z,18.18
2018-06-11T01:49:35.671Z,18.22
2018-06-11T01:50:35.601Z,18.24
2018-06-11T01:51:35.530Z,18.22
2018-06-11T01:52:35.460Z,18.19
2018-06-11T01:53:35.388Z,18.21
2018-06-11T01:54:35.317Z,18.11
2018-06-11T01:55:35.245Z,18.07
2018-06-11T01:56:35.175Z,18.19
2018-06-11T01:57:35.106Z,18.03
2018-06-11T01:58:35.032Z,18.00
2018-06-11T01:59:34.960Z,17.94
2018-06-11T02:00:34.890Z,18.03
2018-06-11T02:01:34.818Z,18.09
2018-06-11T02:02:34.746Z,18.22
2018-06-11T02:03:34.676Z,18.18
2018-06-11T02:04:34.606Z,18.18
2018-06-11T02:05:34.533Z,18.22
2018-06-11T02:06:34.462Z,18.21
2018-06-11T02:07:34.424Z,18.19
2018-06-11T02:08:34.324Z,18.27
2018-06-11T02:09:34.248Z,18.09
2018-06-11T02:10:34.176Z,18.22
2018-06-11T02:11:34.107Z,18.10
2018-06-11T02:12:34.036Z,18.11
2018-06-11T02:13:33.965Z,18.04
2018-06-11T02:14:33.893Z,18.03
2018-06-11T02:15:33.821Z,17.98
2018-06-11T02:16:33.751Z,18.03
2018-06-11T02:17:33.679Z,17.95
2018-06-11T02:18:33.641Z,18.09
2018-06-11T02:19:33.537Z,18.06
2018-06-11T02:20:33.465Z,18.03
2018-06-11T02:21:33.394Z,17.95
2018-06-11T02:22:33.322Z,18.00
2018-06-11T02:23:33.251Z,17.96
2018-06-11T02:24:33.181Z,17.96
2018-06-11T02:25:33.108Z,17.94
2018-06-11T02:26:33.037Z,17.89
2018-06-11T02:27:32.966Z,17.95
2018-06-11T02:28:32.895Z,17.98
2018-06-11T02:29:32.823Z,17.92
2018-06-11T02:30:32.751Z,17.79
2018-06-11T02:31:32.681Z,17.81
2018-06-11T02:32:32.610Z,17.76
2018-06-11T02:33:32.537Z,17.79
2018-06-11T02:34:32.466Z,17.79
2018-06-11T02:35:32.396Z,17.77
2018-06-11T02:36:32.324Z,17.81
2018-06-11T02:37:32.252Z,17.74
2018-06-11T02:38:32.181Z,17.77
2018-06-11T02:39:32.109Z,17.64
2018-06-11T02:40:32.039Z,17.74
2018-06-11T02:41:31.968Z,17.74
2018-06-11T02:42:31.895Z,17.69
2018-06-11T02:43:31.824Z,17.67
2018-06-11T02:44:31.753Z,17.81
2018-06-11T02:45:31.680Z,17.79
2018-06-11T02:46:31.610Z,17.81
2018-06-11T02:47:31.539Z,17.84
2018-06-11T02:48:31.468Z,17.84
2018-06-11T02:49:31.395Z,17.94
2018-06-11T02:50:31.327Z,17.92
2018-06-11T02:51:31.253Z,17.92
2018-06-11T02:52:31.181Z,17.84
2018-06-11T02:53:31.109Z,17.87
2018-06-11T02:54:31.038Z,17.89
2018-06-11T02:55:30.966Z,17.77
2018-06-11T02:56:30.896Z,17.76
2018-06-11T02:57:30.824Z,17.71
2018-06-11T02:58:30.752Z,17.71
2018-06-11T02:59:30.681Z,17.76
2018-06-11T03:00:30.611Z,17.82
2018-06-11T03:01:30.538Z,17.84
2018-06-11T03:02:30.466Z,17.82
2018-06-11T03:03:30.395Z,17.95
2018-06-11T03:04:30.323Z,17.96
2018-06-11T03:05:30.252Z,17.92
2018-06-11T03:06:30.182Z,17.91
2018-06-11T03:07:30.110Z,18.03
2018-06-11T03:08:30.040Z,18.09
2018-06-11T03:09:29.968Z,18.07
2018-06-11T03:10:29.896Z,17.95
2018-06-11T03:11:29.824Z,17.94
2018-06-11T03:12:29.752Z,17.91
2018-06-11T03:13:29.682Z,17.95
2018-06-11T03:14:29.610Z,17.98
2018-06-11T03:15:29.549Z,17.98
2018-06-11T03:16:29.471Z,17.92
2018-06-11T03:17:29.396Z,17.95
2018-06-11T03:18:29.324Z,17.95
2018-06-11T03:19:29.253Z,17.98
2018-06-11T03:20:29.184Z,18.00
2018-06-11T03:21:29.110Z,17.94
2018-06-11T03:22:29.039Z,17.98
2018-06-11T03:23:28.967Z,18.04
2018-06-11T03:24:28.918Z,18.00
2018-06-11T03:25:28.824Z,18.06
2018-06-11T03:26:28.754Z,18.09
2018-06-11T03:27:28.682Z,18.22
2018-06-11T03:28:28.611Z,18.18
2018-06-11T03:29:28.540Z,18.18
2018-06-11T03:30:28.468Z,18.21
2018-06-11T03:31:28.396Z,18.19
2018-06-11T03:32:28.326Z,18.28
2018-06-11T03:33:28.253Z,18.28
2018-06-11T03:34:28.182Z,18.42
2018-06-11T03:35:28.111Z,18.42
2018-06-11T03:36:28.040Z,18.44
2018-06-11T03:37:27.970Z,18.57
2018-06-11T03:38:27.898Z,18.61
2018-06-11T03:39:27.827Z,18.55
2018-06-11T03:40:27.755Z,18.65
2018-06-11T03:41:27.684Z,18.74
2018-06-11T03:42:27.613Z,18.77
2018-06-11T03:43:27.542Z,18.94
2018-06-11T03:44:27.471Z,18.94
2018-06-11T03:45:27.402Z,18.89
2018-06-11T03:46:27.329Z,18.89
2018-06-11T03:47:27.259Z,18.90
2018-06-11T03:48:27.187Z,18.92
2018-06-11T03:49:27.116Z,18.95
2018-06-11T03:50:27.047Z,18.89
2018-06-11T03:51:26.975Z,18.92
2018-06-11T03:52:26.904Z,19.01
2018-06-11T03:53:26.834Z,18.95
2018-06-11T03:54:26.761Z,18.97
2018-06-11T03:55:26.691Z,19.02
2018-06-11T03:56:26.623Z,19.02
2018-06-11T03:57:26.548Z,19.02
2018-06-11T03:58:26.478Z,19.08
2018-06-11T03:59:26.409Z,19.14
2018-06-11T04:00:26.338Z,19.11
2018-06-11T04:01:26.265Z,18.99
2018-06-11T04:02:26.194Z,19.11
2018-06-11T04:03:26.125Z,19.11
2018-06-11T04:04:26.054Z,19.09
2018-06-11T04:05:25.982Z,19.20
2018-06-11T04:06:25.912Z,19.14
2018-06-11T04:07:25.842Z,19.18
2018-06-11T04:08:25.772Z,19.18
2018-06-11T04:09:25.700Z,19.09
2018-06-11T04:10:25.632Z,19.11
2018-06-11T04:11:25.559Z,19.20
2018-06-11T04:12:25.488Z,19.13
2018-06-11T04:13:25.416Z,19.15
2018-06-11T04:14:25.346Z,19.21
2018-06-11T04:15:25.276Z,19.25
2018-06-11T04:16:25.253Z,19.23
2018-06-11T04:17:25.134Z,19.24
2018-06-11T04:18:25.064Z,19.27
2018-06-11T04:19:25.000Z,19.23
2018-06-11T04:20:24.922Z,19.27
2018-06-11T04:21:24.852Z,19.24
2018-06-11T04:22:24.781Z,19.23
2018-06-11T04:23:24.711Z,19.33
2018-06-11T04:24:24.641Z,19.25
2018-06-11T04:25:24.568Z,19.40
2018-06-11T04:26:24.499Z,19.36
2018-06-11T04:27:24.429Z,19.43
2018-06-11T04:28:24.358Z,19.32
2018-06-11T04:29:24.286Z,19.32
2018-06-11T04:30:24.217Z,19.42
2018-06-11T04:31:24.146Z,19.51
2018-06-11T04:32:24.075Z,19.50
2018-06-11T04:33:24.004Z,19.50
2018-06-11T04:34:23.934Z,19.38
2018-06-11T04:35:23.865Z,19.46
2018-06-11T04:36:23.794Z,19.43
2018-06-11T04:37:23.723Z,19.40
2018-06-11T04:38:23.652Z,19.43
2018-06-11T04:39:23.582Z,19.45
2018-06-11T04:40:23.512Z,19.45
2018-06-11T04:41:23.441Z,19.54
2018-06-11T04:42:23.370Z,19.51
2018-06-11T04:43:23.301Z,19.50
2018-06-11T04:44:23.231Z,19.51
2018-06-11T04:45:23.224Z,19.57
2018-06-11T04:46:23.089Z,19.43
2018-06-11T04:47:23.017Z,19.43
2018-06-11T04:48:22.948Z,19.54
2018-06-11T04:49:22.877Z,19.57
2018-06-11T04:50:22.808Z,19.55
2018-06-11T04:51:22.736Z,19.55
2018-06-11T04:52:22.666Z,19.51
2018-06-11T04:53:22.595Z,19.55
2018-06-11T04:54:22.529Z,19.55
2018-06-11T04:55:22.456Z,19.60
2018-06-11T04:56:22.384Z,19.64
2018-06-11T04:57:22.316Z,19.63
2018-06-11T04:58:22.243Z,19.54
2018-06-11T04:59:22.174Z,19.61
2018-06-11T05:00:22.104Z,19.73
2018-06-11T05:01:22.032Z,19.79
2018-06-11T05:02:21.963Z,19.78
2018-06-11T05:03:21.892Z,19.76
2018-06-11T05:04:21.822Z,19.78
2018-06-11T05:05:21.751Z,19.79
2018-06-11T05:06:21.680Z,19.91
2018-06-11T05:07:21.612Z,19.94
2018-06-11T05:08:21.540Z,19.97
2018-06-11T05:09:21.469Z,20.05
2018-06-11T05:10:21.399Z,20.06
2018-06-11T05:11:21.329Z,20.06
2018-06-11T05:12:21.259Z,20.06
2018-06-11T05:13:21.188Z,20.09
2018-06-11T05:14:21.119Z,20.05
2018-06-11T05:15:21.047Z,20.10
2018-06-11T05:16:20.979Z,20.00
2018-06-11T05:17:20.911Z,19.97
2018-06-11T05:18:20.837Z,20.05
2018-06-11T05:19:20.768Z,20.10
2018-06-11T05:20:20.702Z,20.08
2018-06-11T05:21:20.627Z,19.95
2018-06-11T05:22:20.557Z,19.88
2018-06-11T05:23:20.496Z,19.91
2018-06-11T05:24:20.417Z,19.87
2018-06-11T05:25:20.346Z,19.90
2018-06-11T05:26:20.280Z,19.86
2018-06-11T05:27:20.206Z,19.91
2018-06-11T05:28:20.138Z,19.88
2018-06-11T05:29:20.067Z,19.91
2018-06-11T05:30:19.996Z,20.00
2018-06-11T05:31:19.926Z,20.01
2018-06-11T05:32:19.857Z,19.98
2018-06-11T05:33:19.785Z,20.09
2018-06-11T05:34:19.715Z,20.16
2018-06-11T05:35:19.645Z,20.03
2018-06-11T05:36:19.576Z,19.98
2018-06-11T05:37:19.506Z,19.91
2018-06-11T05:38:19.435Z,20.03
2018-06-11T05:39:19.366Z,20.00
2018-06-11T05:40:19.304Z,19.98
2018-06-11T05:41:19.228Z,19.91
2018-06-11T05:42:19.156Z,20.00
2018-06-11T05:43:19.087Z,20.03
2018-06-11T05:44:19.015Z,20.08
2018-06-11T05:45:18.943Z,20.20
2018-06-11T05:46:18.876Z,20.24
2018-06-11T05:47:18.803Z,20.27
2018-06-11T05:48:18.734Z,20.26
2018-06-11T05:49:18.666Z,20.38
2018-06-11T05:50:18.597Z,20.28
2018-06-11T05:51:18.524Z,20.34
2018-06-11T05:52:18.453Z,20.30
2018-06-11T05:53:18.382Z,20.35
2018-06-11T05:54:18.315Z,20.23
2018-06-11T05:55:18.243Z,20.19
2018-06-11T05:56:18.175Z,20.18
2018-06-11T05:57:18.105Z,20.19
2018-06-11T05:58:18.032Z,20.16
2018-06-11T05:59:17.963Z,20.19
2018-06-11T06:00:17.893Z,20.24
2018-06-11T06:01:17.823Z,20.19
2018-06-11T06:02:17.753Z,20.26
2018-06-11T06:03:17.682Z,20.30
2018-06-11T06:04:17.612Z,20.34
2018-06-11T06:05:17.541Z,20.33
2018-06-11T06:06:17.471Z,20.28
2018-06-11T06:07:17.402Z,20.35
2018-06-11T06:08:17.334Z,20.37
2018-06-11T06:09:17.261Z,20.27
2018-06-11T06:10:17.192Z,20.42
2018-06-11T06:11:17.121Z,20.26
2018-06-11T06:12:17.052Z,20.31
2018-06-11T06:13:16.981Z,20.33
2018-06-11T06:14:16.985Z,20.38
2018-06-11T06:15:16.842Z,20.30
2018-06-11T06:16:16.773Z,20.26
2018-06-11T06:17:16.700Z,20.33
2018-06-11T06:18:16.631Z,20.30
2018-06-11T06:19:16.561Z,20.34
2018-06-11T06:20:16.491Z,20.35
2018-06-11T06:21:16.421Z,20.46
2018-06-11T06:22:16.351Z,20.47
2018-06-11T06:23:16.281Z,20.38
2018-06-11T06:24:16.211Z,20.61
2018-06-11T06:25:16.142Z,20.59
2018-06-11T06:26:16.073Z,20.75
2018-06-11T06:27:16.003Z,20.79
2018-06-11T06:28:15.931Z,20.98
2018-06-11T06:29:15.861Z,21.05
2018-06-11T06:30:15.792Z,21.09
2018-06-11T06:31:15.726Z,21.14
2018-06-11T06:32:15.653Z,21.17
2018-06-11T06:33:15.583Z,21.11
2018-06-11T06:34:15.592Z,21.17
2018-06-11T06:35:15.444Z,21.12
2018-06-11T06:36:15.375Z,21.12
2018-06-11T06:37:15.306Z,21.27
2018-06-11T06:38:15.236Z,21.38
2018-06-11T06:39:15.166Z,21.44
2018-06-11T06:40:15.099Z,21.61
2018-06-11T06:41:15.029Z,21.64
2018-06-11T06:42:14.958Z,21.84
2018-06-11T06:43:14.889Z,21.97
2018-06-11T06:44:14.819Z,21.98
2018-06-11T06:45:14.749Z,21.94
2018-06-11T06:46:14.685Z,21.97
2018-06-11T06:47:14.612Z,21.91
2018-06-11T06:48:14.544Z,22.01
2018-06-11T06:49:14.473Z,22.00
2018-06-11T06:50:14.407Z,22.08
2018-06-11T06:51:14.335Z,22.22
2018-06-11T06:52:14.266Z,22.32
2018-06-11T06:53:14.195Z,22.35
2018-06-11T06:54:14.127Z,22.37
2018-06-11T06:55:14.058Z,22.44
2018-06-11T06:56:13.989Z,22.56
2018-06-11T06:57:13.921Z,22.69
2018-06-11T06:58:13.850Z,22.78
2018-06-11T06:59:13.782Z,22.74
2018-06-11T07:00:13.715Z,22.83
2018-06-11T07:01:13.649Z,22.93
2018-06-11T07:02:13.575Z,23.00
2018-06-11T07:03:13.507Z,23.08
2018-06-11T07:04:13.438Z,23.11
2018-06-11T07:05:13.369Z,23.15
2018-06-11T07:06:13.301Z,23.15
2018-06-11T07:07:13.234Z,23.14
2018-06-11T07:08:13.165Z,23.31
2018-06-11T07:09:13.095Z,23.29
2018-06-11T07:10:13.028Z,23.38
2018-06-11T07:11:12.959Z,23.46
2018-06-11T07:12:12.891Z,23.46
2018-06-11T07:13:12.821Z,23.40
2018-06-11T07:14:12.754Z,23.46
2018-06-11T07:15:12.685Z,23.48
2018-06-11T07:16:12.618Z,23.27
2018-06-11T07:17:12.549Z,23.26
2018-06-11T07:18:12.481Z,23.24
2018-06-11T07:19:12.413Z,23.23
2018-06-11T07:20:12.378Z,23.14
2018-06-11T07:21:12.276Z,23.11
2018-06-11T07:22:12.209Z,23.02
2018-06-11T07:23:12.143Z,23.12
2018-06-11T07:24:12.072Z,23.04
2018-06-11T07:25:12.004Z,23.11
2018-06-11T07:26:11.935Z,23.11
2018-06-11T07:27:11.916Z,23.15
2018-06-11T07:28:11.800Z,23.20
2018-06-11T07:29:11.730Z,23.22
2018-06-11T07:30:11.662Z,23.33
2018-06-11T07:31:11.594Z,23.45
2018-06-11T07:32:11.529Z,23.56
2018-06-11T07:33:11.460Z,23.60
2018-06-11T07:34:11.389Z,23.74
2018-06-11T07:35:11.328Z,23.74
2018-06-11T07:36:11.254Z,23.82
2018-06-11T07:37:11.185Z,23.92
2018-06-11T07:38:11.117Z,23.89
2018-06-11T07:39:11.050Z,23.83
2018-06-11T07:40:10.981Z,24.04
2018-06-11T07:41:10.913Z,24.07
2018-06-11T07:42:10.845Z,24.05
2018-06-11T07:43:10.777Z,24.07
2018-06-11T07:44:10.713Z,24.02
2018-06-11T07:45:10.645Z,24.07
2018-06-11T07:46:10.575Z,24.05
2018-06-11T07:47:10.508Z,24.01
2018-06-11T07:48:10.543Z,23.95
2018-06-11T07:49:10.371Z,23.85
2018-06-11T07:50:10.304Z,23.82
2018-06-11T07:51:10.236Z,23.92
2018-06-11T07:52:10.168Z,23.85
2018-06-11T07:53:10.100Z,23.82
2018-06-11T07:54:10.033Z,23.87
2018-06-11T07:55:09.968Z,23.90
2018-06-11T07:56:09.898Z,23.98
2018-06-11T07:57:09.831Z,23.98
2018-06-11T07:58:09.767Z,24.05
2018-06-11T07:59:09.696Z,24.02
2018-06-11T08:00:09.629Z,24.01
2018-06-11T08:01:09.560Z,23.95
2018-06-11T08:02:09.494Z,23.86
2018-06-11T08:03:09.427Z,24.04
2018-06-11T08:04:09.359Z,24.00
2018-06-11T08:05:09.290Z,24.02
2018-06-11T08:06:09.227Z,24.02
2018-06-11T08:07:09.158Z,23.97
2018-06-11T08:08:09.091Z,24.01
2018-06-11T08:09:09.021Z,24.05
2018-06-11T08:10:08.955Z,24.04
2018-06-11T08:11:08.887Z,23.98
2018-06-11T08:12:08.821Z,24.04
2018-06-11T08:13:08.752Z,24.01
2018-06-11T08:14:08.685Z,24.00
2018-06-11T08:15:08.617Z,24.04
2018-06-11T08:16:08.552Z,23.98
2018-06-11T08:17:08.486Z,24.05
2018-06-11T08:18:08.415Z,24.23
2018-06-11T08:19:08.349Z,24.37
2018-06-11T08:20:08.283Z,24.47
2018-06-11T08:21:08.216Z,24.53
2018-06-11T08:22:08.148Z,24.66
2018-06-11T08:23:08.080Z,24.59
2018-06-11T08:24:08.015Z,24.67
2018-06-11T08:25:07.945Z,24.47
2018-06-11T08:26:07.879Z,24.69
2018-06-11T08:27:07.813Z,24.75
2018-06-11T08:28:07.745Z,24.88
2018-06-11T08:29:07.675Z,25.08
2018-06-11T08:30:07.609Z,25.17
2018-06-11T08:31:07.543Z,25.28
2018-06-11T08:32:07.476Z,25.16
2018-06-11T08:33:07.408Z,24.63
2018-06-11T08:34:07.342Z,24.32
2018-06-11T08:35:07.275Z,24.38
2018-06-11T08:36:07.208Z,24.44
2018-06-11T08:37:07.139Z,24.56
2018-06-11T08:38:07.073Z,24.67
2018-06-11T08:39:07.006Z,24.66
2018-06-11T08:40:06.941Z,24.86
2018-06-11T08:41:06.871Z,25.01
2018-06-11T08:42:06.806Z,25.09
2018-06-11T08:43:06.740Z,25.15
2018-06-11T08:44:06.672Z,25.19
2018-06-11T08:45:06.605Z,25.27
2018-06-11T08:46:06.537Z,25.23
2018-06-11T08:47:06.471Z,25.19
2018-06-11T08:48:06.404Z,25.20
2018-06-11T08:49:06.338Z,25.01
2018-06-11T08:50:06.311Z,25.02
2018-06-11T08:51:06.205Z,24.83
2018-06-11T08:52:06.137Z,25.17
2018-06-11T08:53:06.076Z,25.15
2018-06-11T08:54:06.005Z,25.08
2018-06-11T08:55:05.937Z,25.01
2018-06-11T08:56:05.870Z,25.08
2018-06-11T08:57:05.803Z,25.15
2018-06-11T08:58:05.738Z,25.17
2018-06-11T08:59:05.671Z,25.25
2018-06-11T09:00:05.631Z,25.16
2018-06-11T09:01:05.536Z,25.10
2018-06-11T09:02:05.470Z,25.31
2018-06-11T09:03:05.403Z,25.27
2018-06-11T09:04:05.336Z,25.40
2018-06-11T09:05:05.274Z,25.49
2018-06-11T09:06:05.203Z,25.49
2018-06-11T09:07:05.157Z,25.70
2018-06-11T09:08:05.069Z,25.71
2018-06-11T09:09:05.003Z,25.92
2018-06-11T09:10:04.935Z,25.96
2018-06-11T09:11:04.869Z,25.99
2018-06-11T09:12:04.803Z,26.09
2018-06-11T09:13:04.737Z,26.15
2018-06-11T09:14:04.670Z,26.24
2018-06-11T09:15:04.602Z,25.99
2018-06-11T09:16:04.538Z,25.99
2018-06-11T09:17:04.470Z,26.04
2018-06-11T09:18:04.491Z,25.87
2018-06-11T09:19:04.337Z,25.68
2018-06-11T09:20:04.270Z,25.65
2018-06-11T09:21:04.203Z,25.62
2018-06-11T09:22:04.136Z,25.57
2018-06-11T09:23:04.070Z,25.59
2018-06-11T09:24:04.010Z,25.78
2018-06-11T09:25:03.948Z,25.79
2018-06-11T09:26:03.876Z,25.72
2018-06-11T09:27:03.804Z,25.68
2018-06-11T09:28:03.737Z,25.71
2018-06-11T09:29:03.669Z,25.75
2018-06-11T09:30:03.603Z,25.74
2018-06-11T09:31:03.562Z,25.78
2018-06-11T09:32:03.472Z,25.75
2018-06-11T09:33:03.404Z,25.59
2018-06-11T09:34:03.337Z,25.55
2018-06-11T09:35:03.272Z,25.42
2018-06-11T09:36:03.204Z,25.30
2018-06-11T09:37:03.137Z,25.35
2018-06-11T09:38:03.070Z,25.47
2018-06-11T09:39:03.004Z,25.64
2018-06-11T09:40:02.940Z,25.57
2018-06-11T09:41:02.869Z,25.77
2018-06-11T09:42:02.804Z,25.71
2018-06-11T09:43:02.737Z,25.72
2018-06-11T09:44:02.773Z,25.71
2018-06-11T09:45:02.606Z,25.57
2018-06-11T09:46:02.542Z,25.59
2018-06-11T09:47:02.471Z,25.74
2018-06-11T09:48:02.405Z,25.89
2018-06-11T09:49:02.337Z,26.01
2018-06-11T09:50:02.272Z,25.93
2018-06-11T09:51:02.206Z,26.05
2018-06-11T09:52:02.138Z,25.96
2018-06-11T09:53:02.075Z,25.94
2018-06-11T09:54:02.008Z,26.12
2018-06-11T09:55:01.939Z,26.16
2018-06-11T09:56:01.874Z,26.21
2018-06-11T09:57:01.806Z,26.31
2018-06-11T09:58:01.740Z,26.20
2018-06-11T09:59:01.674Z,26.24
2018-06-11T10:00:01.609Z,26.27
2018-06-11T10:01:01.540Z,26.55
2018-06-11T10:02:01.476Z,26.38
2018-06-11T10:03:01.409Z,26.52
2018-06-11T10:04:01.345Z,26.65
2018-06-11T10:05:01.276Z,26.89
2018-06-11T10:06:01.211Z,26.86
2018-06-11T10:07:01.144Z,26.52
2018-06-11T10:08:01.079Z,26.50
2018-06-11T10:09:01.022Z,26.32
2018-06-11T10:10:00.948Z,26.43
2018-06-11T10:11:00.880Z,26.32
2018-06-11T10:12:00.816Z,26.24
2018-06-11T10:13:00.748Z,26.28
2018-06-11T10:14:00.683Z,26.42
2018-06-11T10:15:00.616Z,26.52
2018-06-11T10:16:00.554Z,26.61
2018-06-11T10:17:00.488Z,26.55
2018-06-11T10:18:00.419Z,26.40
2018-06-11T10:19:00.353Z,26.38
2018-06-11T10:20:00.287Z,26.18
2018-06-11T10:21:00.222Z,26.04
2018-06-11T10:22:00.155Z,25.92
2018-06-11T10:23:00.089Z,25.89
2018-06-11T10:24:00.029Z,25.86
2018-06-11T10:24:59.957Z,25.83
2018-06-11T10:25:59.891Z,25.86
2018-06-11T10:26:59.825Z,25.86
2018-06-11T10:27:59.760Z,25.67
2018-06-11T10:28:59.691Z,25.74
2018-06-11T10:29:59.626Z,25.79
2018-06-11T10:30:59.560Z,25.83
2018-06-11T10:31:59.493Z,25.89
2018-06-11T10:32:59.430Z,25.79
2018-06-11T10:33:59.359Z,25.62
2018-06-11T10:34:59.294Z,25.53
2018-06-11T10:35:59.227Z,25.57
2018-06-11T10:36:59.161Z,25.60
2018-06-11T10:37:59.096Z,25.65
2018-06-11T10:38:59.027Z,25.79
2018-06-11T10:39:58.963Z,25.94
2018-06-11T10:40:58.895Z,25.99
2018-06-11T10:41:58.828Z,26.09
2018-06-11T10:42:58.761Z,26.05
2018-06-11T10:43:58.696Z,26.04
2018-06-11T10:44:58.628Z,26.05
2018-06-11T10:45:58.562Z,26.12
2018-06-11T10:46:58.496Z,26.30
2018-06-11T10:47:58.429Z,26.25
2018-06-11T10:48:58.365Z,26.32
2018-06-11T10:49:58.296Z,26.24
2018-06-11T10:50:58.229Z,26.38
2018-06-11T10:51:58.167Z,26.49
2018-06-11T10:52:58.096Z,26.72
2018-06-11T10:53:58.031Z,26.77
2018-06-11T10:54:57.964Z,26.89
2018-06-11T10:55:57.899Z,26.47
2018-06-11T10:56:57.833Z,26.55
2018-06-11T10:57:57.818Z,26.65
2018-06-11T10:58:57.701Z,26.68
2018-06-11T10:59:57.635Z,26.75
2018-06-11T11:00:57.570Z,26.79
2018-06-11T11:01:57.503Z,26.90
2018-06-11T11:02:57.437Z,26.76
2018-06-11T11:03:57.371Z,26.55
2018-06-11T11:04:57.305Z,26.57
2018-06-11T11:05:57.241Z,26.62
2018-06-11T11:06:57.175Z,26.67
2018-06-11T11:07:57.109Z,26.90
2018-06-11T11:08:57.044Z,26.84
2018-06-11T11:09:56.977Z,26.97
2018-06-11T11:10:56.912Z,27.19
2018-06-11T11:11:56.848Z,27.36
2018-06-11T11:12:56.780Z,27.39
2018-06-11T11:13:56.719Z,27.45
2018-06-11T11:14:56.650Z,27.46
2018-06-11T11:15:56.585Z,27.51
2018-06-11T11:16:56.519Z,27.41
2018-06-11T11:17:56.455Z,27.42
2018-06-11T11:18:56.390Z,27.67
2018-06-11T11:19:56.325Z,27.67
2018-06-11T11:20:56.260Z,27.80
2018-06-11T11:21:56.199Z,27.80
2018-06-11T11:22:56.139Z,27.80
2018-06-11T11:23:56.101Z,27.88
2018-06-11T11:24:56.004Z,27.76
2018-06-11T11:25:55.941Z,27.70
2018-06-11T11:26:55.882Z,27.80
2018-06-11T11:27:55.816Z,27.97
2018-06-11T11:28:55.749Z,28.09
2018-06-11T11:29:55.686Z,28.28
2018-06-11T11:30:55.623Z,28.16
2018-06-11T11:31:55.560Z,28.25
2018-06-11T11:32:55.497Z,28.22
2018-06-11T11:33:55.433Z,28.11
2018-06-11T11:34:55.371Z,27.79
2018-06-11T11:35:55.308Z,27.50
2018-06-11T11:36:55.245Z,27.35
2018-06-11T11:37:55.181Z,27.38
2018-06-11T11:38:55.119Z,27.35
2018-06-11T11:39:55.059Z,27.29
2018-06-11T11:40:54.996Z,27.39
2018-06-11T11:41:54.928Z,27.17
2018-06-11T11:42:54.865Z,27.09
2018-06-11T11:43:54.804Z,27.27
2018-06-11T11:44:54.740Z,27.38
2018-06-11T11:45:54.678Z,27.51
2018-06-11T11:46:54.612Z,27.46
2018-06-11T11:47:54.547Z,27.64
2018-06-11T11:48:54.483Z,27.84
2018-06-11T11:49:54.419Z,27.94
2018-06-11T11:50:54.356Z,27.97
2018-06-11T11:51:54.293Z,27.92
2018-06-11T11:52:54.228Z,27.97
2018-06-11T11:53:54.165Z,28.06
2018-06-11T11:54:54.102Z,27.94
2018-06-11T11:55:54.038Z,27.88
2018-06-11T11:56:53.974Z,27.88
2018-06-11T11:57:53.910Z,27.79
2018-06-11T11:58:53.847Z,27.77
2018-06-11T11:59:53.783Z,27.50
2018-06-11T12:00:53.723Z,27.34
2018-06-11T12:01:53.656Z,27.35
2018-06-11T12:02:53.592Z,27.29
2018-06-11T12:03:53.529Z,27.31
2018-06-11T12:04:53.466Z,27.17
2018-06-11T12:05:53.400Z,26.90
2018-06-11T12:06:53.336Z,27.01
2018-06-11T12:07:53.273Z,26.83
2018-06-11T12:08:53.206Z,26.57
2018-06-11T12:09:53.142Z,26.20
2018-06-11T12:10:53.079Z,25.87
2018-06-11T12:11:53.013Z,25.67
2018-06-11T12:12:52.947Z,25.45
2018-06-11T12:13:52.884Z,25.45
2018-06-11T12:14:52.818Z,25.27
2018-06-11T12:15:52.754Z,25.30
2018-06-11T12:16:52.687Z,25.15
2018-06-11T12:17:52.623Z,25.10
2018-06-11T12:18:52.556Z,25.02
2018-06-11T12:19:52.497Z,24.95
2018-06-11T12:20:52.424Z,24.93
2018-06-11T12:21:52.358Z,24.76
2018-06-11T12:22:52.293Z,24.78
2018-06-11T12:23:52.227Z,24.90
2018-06-11T12:24:52.160Z,24.80
2018-06-11T12:25:52.098Z,24.73
2018-06-11T12:26:52.028Z,24.79
2018-06-11T12:27:51.962Z,24.76
2018-06-11T12:28:51.896Z,24.76
2018-06-11T12:29:51.830Z,24.59
2018-06-11T12:30:51.762Z,24.56
2018-06-11T12:31:51.699Z,24.37
2018-06-11T12:32:51.628Z,24.40
2018-06-11T12:33:51.562Z,24.25
2018-06-11T12:34:51.495Z,24.11
2018-06-11T12:35:51.430Z,24.05
2018-06-11T12:36:51.361Z,24.05
2018-06-11T12:37:51.293Z,24.11
2018-06-11T12:38:51.228Z,24.01
2018-06-11T12:39:51.162Z,23.98
2018-06-11T12:40:51.095Z,24.05
2018-06-11T12:41:51.029Z,24.05
2018-06-11T12:42:50.959Z,23.87
2018-06-11T12:43:50.892Z,23.86
2018-06-11T12:44:50.823Z,23.79
2018-06-11T12:45:50.760Z,23.83
2018-06-11T12:46:50.690Z,23.75
2018-06-11T12:47:50.625Z,23.72
2018-06-11T12:48:50.555Z,23.78
2018-06-11T12:49:50.487Z,23.74
2018-06-11T12:50:50.418Z,23.71
2018-06-11T12:51:50.352Z,23.68